Time;durP1;ratioP1;P1;durP2;ratioP2;P2;SDS_P1;SDS_P2;PMS_P1;PMS_P2;Temp;Humidity;BMP_temperature;BMP_pressure;BME280_temperature;BME280_humidity;BME280_pressure;Samples;Min_cycle;Max_cycle;Signal;HPM_P1;HPM_P2
2022/05/10 00:02:56;;;;;;;1.92;1.55;;;15.50;37.20;;;13.58;40.54;102014.16;12247360;19;20455;-78
2022/05/10 00:06:58;;;;;;;2.33;1.67;;;15.60;37.40;;;13.49;40.44;102017.22;12246073;19;20058;-78
2022/05/10 00:10:59;;;;;;;3.00;1.85;;;15.70;37.40;;;13.39;40.40;102015.94;12246582;19;20023;-78
2022/05/10 00:15:03;;;;;;;3.13;1.77;;;15.60;37.40;;;13.32;40.79;102014.56;12242651;19;20014;-78
2022/05/10 00:19:04;;;;;;;1.45;1.35;;;15.50;37.40;;;13.20;40.61;101997.56;12245701;19;20082;-78
2022/05/10 00:23:06;;;;;;;1.88;1.55;;;15.50;37.50;;;13.07;40.79;101979.78;12246969;19;20098;-78
2022/05/10 00:27:08;;;;;;;1.90;1.50;;;15.50;37.60;;;13.38;40.72;102014.25;12245033;19;20014;-78
2022/05/10 00:31:11;;;;;;;1.58;1.42;;;15.40;37.60;;;13.26;40.66;101994.72;12246330;19;20018;-78
2022/05/10 00:35:30;;;;;;;2.90;1.63;;;15.50;37.60;;;13.32;41.02;101998.81;12240780;19;20371;-78
2022/05/10 00:39:31;;;;;;;2.28;1.60;;;15.50;37.80;;;13.24;40.74;101986.84;12242539;19;20086;-78
2022/05/10 00:43:41;;;;;;;3.65;2.00;;;15.40;37.60;;;13.35;41.02;102001.28;12243206;19;20010;-78
2022/05/10 00:47:49;;;;;;;1.40;1.30;;;15.40;37.80;;;13.35;40.89;102009.16;12243054;19;20483;-78
2022/05/10 00:51:56;;;;;;;1.40;1.30;;;15.30;37.70;;;13.31;40.92;101987.44;12243017;19;20086;-78
2022/05/10 00:56:09;;;;;;;1.67;1.45;;;15.40;37.70;;;13.34;41.16;101989.06;12244448;19;20022;-78
2022/05/10 01:00:28;;;;;;;1.20;1.10;;;15.40;37.90;;;13.33;41.05;101984.75;12244239;19;20029;-78
2022/05/10 01:04:47;;;;;;;1.58;1.48;;;15.40;37.90;;;13.21;41.33;101975.66;12239756;19;20516;-79
2022/05/10 01:08:58;;;;;;;3.65;1.95;;;15.30;37.90;;;13.14;41.36;101975.09;12242563;19;20031;-78
2022/05/10 01:13:16;;;;;;;1.95;1.77;;;15.30;38.00;;;13.00;41.44;101951.28;12242752;19;20341;-78
2022/05/10 01:17:18;;;;;;;2.25;1.80;;;15.10;38.10;;;12.82;41.21;101924.94;12242098;19;20488;-78
2022/05/10 01:22:04;;;;;;;2.55;1.25;;;15.20;38.00;;;12.94;41.39;101956.81;12239526;19;20014;-78
2022/05/10 01:26:44;;;;;;;1.63;1.53;;;15.00;38.30;;;12.65;41.47;101922.25;12244656;19;20488;-78
2022/05/10 01:30:46;;;;;;;3.05;1.75;;;15.00;38.30;;;12.63;41.44;101937.19;12243538;19;20018;-78
2022/05/10 01:34:51;;;;;;;1.88;1.77;;;14.90;38.10;;;12.56;41.51;101915.66;12236870;19;20630;-78
2022/05/10 01:39:09;;;;;;;1.30;1.15;;;14.90;38.30;;;12.49;41.77;101914.22;12240073;19;20503;-78
2022/05/10 01:43:29;;;;;;;1.55;1.27;;;14.80;38.50;;;12.66;41.92;101936.19;12239798;19;20456;-77
2022/05/10 01:47:54;;;;;;;1.70;1.60;;;14.80;38.50;;;12.48;42.19;101911.69;12234504;19;20032;-77
2022/05/10 01:52:14;;;;;;;1.55;1.45;;;14.80;38.70;;;12.02;41.91;101848.22;12240989;19;20405;-77
2022/05/10 01:56:25;;;;;;;1.85;1.45;;;14.70;38.50;;;12.48;42.10;101930.88;12241419;19;20345;-77
2022/05/10 02:00:28;;;;;;;1.52;1.40;;;14.60;38.70;;;12.27;42.13;101898.59;12241728;19;20027;-77
2022/05/10 02:04:37;;;;;;;1.90;1.55;;;14.60;38.70;;;12.31;42.17;101915.00;12238657;19;20131;-77
2022/05/10 02:09:15;;;;;;;1.80;1.58;;;14.50;38.70;;;12.29;42.28;101920.34;12239826;19;20006;-77
2022/05/10 02:13:30;;;;;;;1.55;1.45;;;14.50;38.80;;;12.19;42.13;101921.66;12240111;19;20026;-77
2022/05/10 02:17:48;;;;;;;1.63;1.52;;;14.40;38.70;;;12.11;42.48;101918.50;12239021;19;20031;-77
2022/05/10 02:22:01;;;;;;;1.70;1.60;;;14.40;39.00;;;12.02;42.45;101903.19;12236280;19;20024;-77
2022/05/10 02:26:19;;;;;;;1.75;1.65;;;14.30;39.00;;;12.00;42.52;101895.38;12240090;19;20360;-78
2022/05/10 02:30:29;;;;;;;1.73;1.63;;;14.20;39.10;;;12.11;42.53;101926.34;12238214;19;20018;-77
2022/05/10 02:34:37;;;;;;;1.85;1.67;;;14.20;38.90;;;11.87;42.51;101879.34;12236141;19;20163;-77
2022/05/10 02:38:40;;;;;;;3.13;1.50;;;14.20;39.00;;;12.11;42.39;101913.25;12236369;19;20022;-77
2022/05/10 02:42:47;;;;;;;2.17;1.60;;;14.20;39.00;;;11.96;42.46;101888.56;12237649;19;20015;-77
2022/05/10 02:46:49;;;;;;;1.73;1.63;;;14.00;39.00;;;12.08;42.33;101905.53;12237877;19;20032;-77
2022/05/10 02:50:51;;;;;;;4.68;2.10;;;14.20;39.00;;;11.77;42.57;101854.44;12238355;19;20014;-77
2022/05/10 02:55:00;;;;;;;3.22;2.00;;;14.20;39.00;;;11.68;42.63;101845.22;12234924;19;20085;-77
2022/05/10 02:59:10;;;;;;;1.83;1.70;;;14.00;38.90;;;11.83;42.83;101871.69;12237078;19;20353;-77
2022/05/10 03:03:15;;;;;;;1.88;1.77;;;14.00;39.20;;;11.76;42.88;101865.81;12251766;19;20019;-77
2022/05/10 03:07:17;;;;;;;1.70;1.60;;;14.10;39.20;;;11.78;42.69;101884.94;12258417;19;20066;-77
2022/05/10 03:11:20;;;;;;;4.25;2.05;;;14.00;39.10;;;11.65;42.88;101860.19;12261522;19;20081;-78
2022/05/10 03:15:21;;;;;;;2.40;2.20;;;14.00;39.20;;;11.60;42.95;101856.91;12256884;19;20045;-77
2022/05/10 03:19:23;;;;;;;3.35;2.20;;;13.90;39.20;;;11.64;43.08;101869.81;12259926;19;20019;-77
2022/05/10 03:23:27;;;;;;;3.53;1.80;;;13.90;39.20;;;11.61;42.95;101877.78;12257657;19;20038;-77
2022/05/10 03:27:29;;;;;;;1.75;1.58;;;13.80;39.20;;;11.55;43.15;101867.56;12259388;19;20018;-78
2022/05/10 03:31:31;;;;;;;2.15;1.70;;;13.80;39.30;;;11.48;43.06;101860.91;12259502;19;20017;-77
2022/05/10 03:35:33;;;;;;;2.05;1.80;;;13.90;39.40;;;11.41;43.06;101844.59;12259244;19;20052;-77
2022/05/10 03:39:35;;;;;;;1.52;1.42;;;13.70;39.30;;;11.43;43.09;101858.47;12256314;19;20015;-77
2022/05/10 03:43:37;;;;;;;1.77;1.67;;;13.60;39.30;;;11.33;43.13;101851.88;12258171;19;20007;-78
2022/05/10 03:47:39;;;;;;;1.80;1.70;;;13.70;39.30;;;11.15;43.19;101836.94;12256641;19;20022;-77
2022/05/10 03:51:41;;;;;;;1.90;1.70;;;13.50;39.40;;;11.06;43.33;101828.53;12257621;19;20010;-77
2022/05/10 03:55:43;;;;;;;1.33;1.23;;;13.40;39.50;;;11.24;43.38;101858.34;12240131;19;20010;-77
2022/05/10 03:59:46;;;;;;;2.17;1.90;;;13.50;39.60;;;11.23;43.44;101858.41;12250757;19;20030;-77
2022/05/10 04:03:48;;;;;;;1.67;1.58;;;13.20;39.90;;;11.21;43.48;101842.78;12255063;19;20047;-77
2022/05/10 04:07:49;;;;;;;1.98;1.65;;;13.20;39.70;;;10.78;43.60;101771.28;12252282;19;20030;-77
2022/05/10 04:11:51;;;;;;;1.90;1.70;;;13.20;39.80;;;11.17;43.63;101827.28;12258146;19;20886;-77
2022/05/10 04:15:53;;;;;;;2.42;1.85;;;13.50;40.00;;;11.13;43.73;101823.09;12243748;19;20023;-77
2022/05/10 04:19:54;;;;;;;2.10;1.92;;;13.40;40.10;;;11.27;43.75;101852.16;12239588;19;20493;-77
2022/05/10 04:23:56;;;;;;;4.00;1.75;;;13.50;40.10;;;11.25;43.78;101833.03;12238964;19;20410;-77
2022/05/10 04:27:57;;;;;;;9.95;2.20;;;13.50;40.20;;;11.25;43.94;101831.28;12236943;19;20467;-77
2022/05/10 04:31:59;;;;;;;3.58;1.83;;;13.50;40.20;;;11.23;43.77;101819.16;12245452;19;20018;-77
2022/05/10 04:36:01;;;;;;;1.90;1.80;;;13.50;40.40;;;11.38;43.99;101849.94;12239321;19;20041;-77
2022/05/10 04:44:24;;;;;;;1.80;1.70;;;13.50;40.60;;;11.19;44.04;101809.75;12235534;19;20048;-77
2022/05/10 04:48:26;;;;;;;1.80;1.70;;;13.60;40.50;;;10.97;44.28;101779.25;12237151;19;20026;-77
2022/05/10 04:52:28;;;;;;;7.57;2.00;;;13.50;40.60;;;11.29;44.42;101824.19;12239270;19;20094;-77
2022/05/10 04:56:30;;;;;;;18.08;3.33;;;13.60;40.60;;;11.26;44.36;101809.47;12236859;19;20402;-77
2022/05/10 05:00:31;;;;;;;6.57;2.33;;;13.60;40.80;;;11.35;44.49;101816.06;12235636;19;20689;-77
2022/05/10 05:04:33;;;;;;;1.67;1.58;;;13.70;41.00;;;11.49;44.33;101832.03;12236255;19;20015;-78
2022/05/10 05:08:35;;;;;;;1.85;1.75;;;13.70;41.00;;;11.58;44.66;101828.19;12235159;19;20351;-78
2022/05/10 05:12:36;;;;;;;2.58;1.90;;;13.70;41.10;;;11.70;44.67;101832.91;12237163;19;20039;-77
2022/05/10 05:16:38;;;;;;;4.55;2.13;;;13.60;41.30;;;11.74;44.49;101820.53;12237049;19;20014;-78
2022/05/10 05:20:43;;;;;;;2.85;2.05;;;13.70;41.10;;;11.80;44.81;101798.50;12236153;19;20006;-77
2022/05/10 05:24:44;;;;;;;2.13;1.63;;;14.00;41.20;;;12.03;44.57;101805.41;12232353;19;20099;-77
2022/05/10 05:28:46;;;;;;;2.08;1.70;;;14.10;41.10;;;12.16;44.65;101798.69;12234149;19;20025;-77
2022/05/10 05:32:48;;;;;;;2.35;1.83;;;14.10;41.10;;;12.35;44.55;101796.94;12232836;19;20865;-78
2022/05/10 05:37:32;;;;;;;3.03;2.10;;;14.10;41.00;;;12.71;44.67;101817.13;12236302;19;20137;-77
2022/05/10 05:41:11;;;;;;;2.25;2.05;;;14.50;41.10;;;13.01;44.42;101829.72;12234717;19;20026;-78
2022/05/10 05:45:15;;;;;;;2.40;1.88;;;14.80;41.10;;;13.27;44.55;101815.38;12232210;19;20015;-77
2022/05/10 05:49:17;;;;;;;3.85;2.72;;;15.00;41.10;;;13.52;44.39;101811.53;12235814;19;20018;-77
2022/05/10 05:53:18;;;;;;;2.10;1.88;;;15.30;41.10;;;13.78;44.34;101802.34;12233086;19;20814;-78
2022/05/10 05:57:21;;;;;;;1.85;1.75;;;15.40;41.50;;;14.21;44.28;101818.50;12232766;19;20027;-77
2022/05/10 06:01:23;;;;;;;4.05;2.17;;;15.60;41.10;;;14.22;44.41;101772.91;12230047;19;20018;-77
2022/05/10 06:05:27;;;;;;;3.67;1.98;;;16.00;40.90;;;14.68;44.04;101794.09;12233259;19;20018;-77
2022/05/10 06:09:28;;;;;;;4.32;2.40;;;16.30;41.00;;;14.87;44.20;101778.13;12234628;19;20022;-78
2022/05/10 06:13:30;;;;;;;2.42;2.00;;;16.60;40.90;;;15.19;44.03;101792.09;12233707;19;20034;-78
2022/05/10 06:17:31;;;;;;;3.97;2.15;;;16.90;40.60;;;15.41;43.92;101789.06;12230528;19;20014;-78
2022/05/10 06:21:33;;;;;;;3.40;2.30;;;17.10;40.50;;;15.49;43.85;101777.13;12230241;19;20014;-78
2022/05/10 06:25:36;;;;;;;3.42;2.03;;;17.30;40.40;;;15.65;43.71;101777.06;12232256;19;20019;-77
2022/05/10 06:29:37;;;;;;;5.32;2.67;;;17.60;40.20;;;16.02;43.56;101803.88;12234651;19;20006;-77
2022/05/10 06:33:39;;;;;;;2.97;1.92;;;17.70;40.30;;;16.19;43.62;101802.81;12233128;19;20022;-77
2022/05/10 06:42:02;;;;;;;5.15;2.28;;;18.00;39.90;;;16.57;43.25;101787.25;12231215;19;20085;-77
2022/05/10 06:46:13;;;;;;;3.35;2.33;;;18.30;39.80;;;16.71;43.41;101773.16;12232077;19;20382;-77
2022/05/10 06:50:19;;;;;;;2.92;1.88;;;18.40;39.60;;;16.95;43.20;101765.50;12233460;19;20032;-77
2022/05/10 06:54:20;;;;;;;2.97;2.20;;;18.70;39.60;;;17.09;43.33;101767.22;12229036;19;20038;-77
2022/05/10 06:58:22;;;;;;;3.42;2.05;;;18.90;39.40;;;17.21;43.12;101747.09;12230892;19;20074;-77
2022/05/10 07:02:24;;;;;;;3.72;2.40;;;19.10;39.40;;;17.47;43.01;101755.88;12229513;19;20018;-77
2022/05/10 07:06:27;;;;;;;3.40;2.38;;;19.30;39.20;;;17.73;42.85;101766.50;12231863;19;20375;-77
2022/05/10 07:10:28;;;;;;;7.22;2.55;;;19.30;39.10;;;17.82;42.76;101744.72;12233413;19;20043;-77
2022/05/10 07:14:30;;;;;;;2.53;2.15;;;19.60;39.10;;;18.12;42.78;101752.34;12230793;19;20025;-77
2022/05/10 07:18:32;;;;;;;4.35;2.47;;;20.10;39.10;;;18.04;42.88;101700.00;12227302;19;20018;-77
2022/05/10 07:22:33;;;;;;;3.85;3.08;;;20.00;39.00;;;18.44;42.36;101728.84;12227359;19;20019;-78
2022/05/10 07:26:35;;;;;;;3.67;1.77;;;20.10;38.90;;;18.79;42.24;101751.94;12230108;19;20014;-77
2022/05/10 07:30:37;;;;;;;2.80;1.90;;;20.60;39.00;;;18.93;42.33;101727.94;12231482;19;20044;-77
2022/05/10 07:34:39;;;;;;;4.18;2.15;;;20.60;38.80;;;19.22;42.09;101738.97;12227956;19;20025;-79
2022/05/10 07:38:41;;;;;;;5.50;2.33;;;20.80;38.90;;;19.35;41.87;101723.00;12227788;19;20019;-77
2022/05/10 07:42:43;;;;;;;5.05;2.45;;;21.00;38.40;;;19.65;42.17;101733.03;12228993;19;20066;-78
2022/05/10 07:46:45;;;;;;;3.50;2.08;;;21.50;38.70;;;19.85;41.96;101726.25;12229706;19;20013;-77
2022/05/10 07:50:46;;;;;;;5.35;2.25;;;21.40;38.40;;;19.86;41.86;101676.72;12243864;19;20383;-77
2022/05/10 07:54:48;;;;;;;5.28;2.10;;;21.60;38.40;;;20.41;41.79;101717.34;12237271;19;20390;-77
2022/05/10 07:58:51;;;;;;;2.40;2.20;;;21.90;38.30;;;20.52;41.60;101681.97;12239883;19;20015;-78
2022/05/10 08:02:53;;;;;;;4.13;2.17;;;22.10;38.30;;;20.96;41.19;101712.03;12234454;19;20031;-78
2022/05/10 08:06:54;;;;;;;5.22;2.40;;;22.50;38.30;;;21.23;41.23;101697.41;12239977;19;20031;-78
2022/05/10 08:10:57;;;;;;;3.95;1.92;;;22.80;38.20;;;21.65;40.96;101712.31;12237071;19;20017;-77
2022/05/10 08:14:59;;;;;;;4.30;1.73;;;23.10;37.90;;;21.85;41.07;101693.81;12235735;19;20077;-79
2022/05/10 08:19:00;;;;;;;2.95;2.15;;;23.30;37.90;;;22.07;40.66;101682.94;12240167;19;20015;-78
2022/05/10 08:23:02;;;;;;;2.05;1.85;;;23.70;37.10;;;22.35;40.19;101685.00;12229298;19;20042;-77
2022/05/10 08:27:04;;;;;;;6.50;2.35;;;23.90;36.80;;;22.45;40.07;101677.88;12237911;19;20015;-77
2022/05/10 08:31:08;;;;;;;2.75;1.60;;;24.10;36.50;;;22.63;39.76;101681.53;12239212;19;20022;-78
2022/05/10 08:35:13;;;;;;;3.78;2.10;;;24.20;36.20;;;22.96;39.53;101698.09;12227039;19;20479;-79
2022/05/10 08:39:15;;;;;;;6.07;2.03;;;24.40;36.00;;;23.09;39.40;101687.13;12237363;19;20536;-77
2022/05/10 08:43:27;;;;;;;4.43;2.00;;;24.60;35.80;;;23.24;38.98;101680.34;12240626;19;20019;-77
2022/05/10 08:47:30;;;;;;;2.58;2.08;;;24.90;35.60;;;23.38;38.98;101663.88;12240608;19;20022;-77
2022/05/10 08:51:31;;;;;;;4.20;2.10;;;25.00;35.50;;;23.66;38.77;101693.28;12236459;19;20476;-77
2022/05/10 08:55:44;;;;;;;1.90;1.70;;;25.20;35.30;;;23.78;38.19;101673.44;12240883;19;20015;-77
2022/05/10 09:00:10;;;;;;;2.80;2.10;;;25.40;34.80;;;23.91;37.88;101674.94;12238571;19;20417;-77
2022/05/10 09:04:36;;;;;;;4.28;1.70;;;25.50;34.90;;;24.07;37.32;101672.47;12239037;19;20086;-77
2022/05/10 09:09:06;;;;;;;3.15;1.80;;;25.60;34.50;;;24.14;37.01;101660.19;12233380;19;20078;-76
2022/05/10 09:13:14;;;;;;;2.25;1.88;;;25.80;33.80;;;24.29;37.29;101657.84;12232366;19;20014;-78
2022/05/10 09:17:19;;;;;;;3.25;2.08;;;25.70;34.00;;;24.36;37.25;101653.56;12238480;19;20029;-77
2022/05/10 09:21:39;;;;;;;5.30;2.13;;;26.00;34.40;;;24.47;37.12;101641.88;12233674;19;20010;-77
2022/05/10 09:25:45;;;;;;;5.00;1.88;;;26.10;34.10;;;24.58;37.01;101635.44;12235001;19;20541;-77
2022/05/10 09:29:52;;;;;;;2.67;1.92;;;26.20;34.10;;;24.68;36.90;101630.81;12237599;19;20011;-76
2022/05/10 09:38:27;;;;;;;4.55;1.83;;;26.40;33.40;;;24.85;36.70;101623.81;12236529;19;20475;-78
2022/05/10 09:42:42;;;;;;;2.75;1.67;;;26.50;33.60;;;24.99;36.31;101623.22;12233162;19;20106;-77
2022/05/10 09:46:44;;;;;;;2.35;1.48;;;26.60;33.50;;;25.15;36.19;101634.03;12234529;19;20014;-77
2022/05/10 09:50:52;;;;;;;2.88;1.60;;;26.70;33.50;;;25.28;35.60;101620.25;12236453;19;20087;-79
2022/05/10 09:54:57;;;;;;;2.85;1.80;;;26.80;33.20;;;25.52;35.35;101618.66;12233927;19;20011;-78
2022/05/10 09:59:27;;;;;;;1.77;1.52;;;27.20;33.00;;;25.70;35.05;101613.22;12236732;19;20526;-78
2022/05/10 10:03:37;;;;;;;3.45;1.60;;;27.10;32.90;;;25.60;35.04;101568.72;12234759;19;20015;-78
2022/05/10 10:07:50;;;;;;;2.35;1.77;;;27.20;32.80;;;25.97;35.06;101598.78;12234622;19;20018;-78
2022/05/10 10:11:51;;;;;;;2.30;1.52;;;27.50;32.80;;;26.13;34.76;101600.66;12230526;19;20356;-78
2022/05/10 10:15:54;;;;;;;2.83;1.70;;;27.60;32.30;;;26.27;34.53;101592.81;12233119;19;20462;-78
2022/05/10 10:20:39;;;;;;;2.17;1.52;;;27.80;32.50;;;26.42;34.48;101584.09;12233328;19;20018;-78
2022/05/10 10:25:12;;;;;;;3.17;2.20;;;27.90;32.40;;;26.47;34.38;101579.09;12220105;19;20019;-78
2022/05/10 10:29:32;;;;;;;3.10;1.70;;;28.00;32.20;;;26.57;34.01;101586.97;12230370;19;20644;-78
2022/05/10 10:33:43;;;;;;;6.63;2.10;;;28.10;32.60;;;26.53;33.75;101553.50;12226880;19;20407;-78
2022/05/10 10:37:56;;;;;;;3.10;2.22;;;28.10;32.00;;;26.63;34.06;101554.16;12230873;19;20010;-78
2022/05/10 10:42:21;;;;;;;2.47;1.77;;;28.30;32.30;;;26.87;34.12;101566.66;12229418;19;20010;-78
2022/05/10 10:46:32;;;;;;;4.10;1.70;;;28.30;32.20;;;27.05;33.86;101553.84;12228918;19;20027;-78
2022/05/10 10:50:35;;;;;;;2.40;1.50;;;28.50;32.10;;;27.19;34.01;101548.81;12228818;19;20014;-77
2022/05/10 10:54:37;;;;;;;2.08;1.70;;;28.70;32.20;;;27.34;33.75;101547.06;12222703;19;20018;-76
2022/05/10 10:58:56;;;;;;;6.80;1.65;;;28.70;32.10;;;27.49;33.28;101536.41;12232813;19;20015;-77
2022/05/10 11:03:08;;;;;;;2.10;1.52;;;28.90;31.90;;;27.66;33.41;101532.66;12226546;19;20035;-77
2022/05/10 11:08:08;;;;;;;4.53;2.00;;;29.10;32.10;;;27.74;33.42;101510.28;12232009;19;20010;-77
2022/05/10 11:12:30;;;;;;;2.72;1.75;;;29.30;32.30;;;27.84;33.22;101510.06;12229832;19;20868;-77
2022/05/10 11:17:20;;;;;;;1.92;1.70;;;29.40;31.40;;;27.82;32.63;101502.22;12232330;19;20048;-76
2022/05/10 11:22:03;;;;;;;2.40;1.48;;;29.40;31.50;;;27.82;32.62;101487.97;12230176;19;20018;-77
2022/05/10 11:26:36;;;;;;;5.05;1.67;;;29.50;31.40;;;27.87;32.63;101478.34;12239358;19;20015;-77
2022/05/10 11:30:50;;;;;;;2.97;1.58;;;29.50;31.50;;;27.95;32.06;101489.03;12243936;19;20506;-77
2022/05/10 11:35:14;;;;;;;2.30;1.63;;;29.60;31.10;;;27.98;32.03;101482.47;12242795;19;20018;-77
2022/05/10 11:39:55;;;;;;;2.45;1.50;;;29.60;31.30;;;28.00;32.22;101478.56;12224223;19;20216;-77
2022/05/10 11:44:40;;;;;;;4.88;2.03;;;29.60;31.00;;;28.03;32.09;101477.38;12224404;19;20010;-77
2022/05/10 11:49:51;;;;;;;1.83;1.63;;;29.60;31.00;;;28.02;32.29;101463.09;12231744;19;20022;-77
2022/05/10 11:54:33;;;;;;;5.13;1.70;;;29.60;31.40;;;28.15;32.43;101458.97;12223856;19;20019;-79
2022/05/10 11:58:37;;;;;;;4.28;2.15;;;29.70;31.40;;;28.22;31.92;101449.16;12230766;19;20022;-78
2022/05/10 12:02:38;;;;;;;2.95;2.22;;;29.80;31.10;;;28.29;32.02;101438.50;12225105;19;20017;-77
2022/05/10 12:06:42;;;;;;;3.17;2.22;;;29.80;31.00;;;28.34;31.66;101438.81;12229270;19;20111;-77
2022/05/10 12:10:45;;;;;;;3.47;1.77;;;29.90;30.80;;;28.35;31.69;101418.97;12227755;19;20086;-77
2022/05/10 12:24:28;;;;;;;1.85;1.70;;;30.00;30.30;;;28.18;30.72;101378.03;12222928;19;20014;-77
2022/05/10 12:28:49;;;;;;;2.63;1.50;;;30.00;30.30;;;28.10;30.92;101365.50;12228480;19;20014;-77
2022/05/10 12:32:51;;;;;;;2.80;1.75;;;30.00;30.40;;;27.97;31.35;101341.97;12226354;19;20078;-77
2022/05/10 12:37:12;;;;;;;1.95;1.65;;;29.90;30.40;;;28.00;31.16;101344.31;12226658;19;20018;-76
2022/05/10 12:41:46;;;;;;;1.80;1.70;;;29.90;30.40;;;28.40;31.04;101397.75;12223843;19;20089;-76
2022/05/10 12:45:56;;;;;;;2.45;1.48;;;29.90;30.20;;;28.42;30.75;101393.03;12224145;19;20018;-77
2022/05/10 12:50:20;;;;;;;1.52;1.42;;;29.90;30.20;;;28.49;30.40;101380.56;12228935;19;20660;-77
2022/05/10 12:54:27;;;;;;;2.78;1.50;;;30.00;30.10;;;28.48;30.58;101353.84;12220958;19;20015;-77
2022/05/10 12:58:34;;;;;;;1.90;1.50;;;30.00;30.00;;;28.29;30.38;101307.72;12226909;19;20022;-78
2022/05/10 13:02:49;;;;;;;2.20;2.00;;;30.00;30.30;;;28.68;30.38;101352.25;12219615;19;21779;-77
2022/05/10 13:07:40;;;;;;;1.45;1.35;;;30.20;30.50;;;28.76;30.40;101348.59;12225926;19;20034;-77
2022/05/10 13:11:57;;;;;;;1.30;1.20;;;30.30;29.90;;;28.86;30.19;101349.13;12223641;19;20010;-76
2022/05/10 13:16:01;;;;;;;2.53;1.60;;;30.30;30.00;;;28.84;30.15;101340.41;12225870;19;20010;-79
2022/05/10 13:20:10;;;;;;;1.87;1.50;;;30.30;30.00;;;28.87;30.11;101319.38;12223726;19;20077;-76
2022/05/10 13:24:16;;;;;;;7.05;1.95;;;30.40;30.00;;;28.94;30.07;101326.69;12218985;19;20275;-77
2022/05/10 13:28:22;;;;;;;1.60;1.25;;;30.30;30.00;;;29.01;29.81;101328.41;12228036;19;20026;-77
2022/05/10 13:32:40;;;;;;;2.85;1.60;;;30.50;29.90;;;29.07;29.88;101325.00;12223908;19;20019;-77
2022/05/10 13:36:51;;;;;;;1.90;1.38;;;30.50;29.90;;;28.93;29.26;101284.69;12223866;19;20034;-77
2022/05/10 13:41:03;;;;;;;2.05;1.73;;;30.50;29.50;;;29.14;29.03;101308.94;12222498;19;20015;-76
2022/05/10 13:45:05;;;;;;;3.72;1.70;;;30.60;29.60;;;29.15;29.44;101304.38;12218269;19;20022;-77
2022/05/10 13:49:13;;;;;;;2.00;1.70;;;30.60;29.50;;;29.14;28.80;101287.41;12220373;19;20097;-77
2022/05/10 13:53:28;;;;;;;1.73;1.60;;;30.60;29.30;;;29.09;28.90;101285.28;12221407;19;20014;-76
2022/05/10 13:57:33;;;;;;;1.58;1.48;;;30.60;29.30;;;29.14;28.98;101281.16;12227165;19;21307;-77
2022/05/10 14:01:48;;;;;;;;;;;30.60;29.30;;;29.18;29.75;101272.53;12222848;19;20014;-77
2022/05/10 14:05:57;;;;;;;1.90;1.35;;;30.60;30.10;;;29.14;29.24;101270.41;12220135;19;19950;-77
2022/05/10 14:10:00;;;;;;;2.28;1.40;;;30.60;29.40;;;29.04;28.96;101266.19;12221319;19;20010;-76
2022/05/10 14:14:03;;;;;;;1.55;1.45;;;30.70;29.20;;;28.91;28.66;101239.16;12220203;19;20514;-76
2022/05/10 14:18:13;;;;;;;3.10;1.95;;;30.50;29.00;;;28.99;28.59;101243.56;12225463;19;20028;-76
2022/05/10 14:22:20;;;;;;;1.77;1.67;;;30.60;29.10;;;29.01;28.29;101241.53;12218795;19;20018;-76
2022/05/10 14:26:46;;;;;;;1.90;1.60;;;30.50;29.10;;;29.03;28.65;101232.25;12222538;19;20018;-76
2022/05/10 14:30:53;;;;;;;3.05;1.90;;;30.50;29.30;;;28.98;28.16;101212.34;12223786;19;20025;-76
2022/05/10 14:35:22;;;;;;;1.98;1.55;;;30.50;29.00;;;28.95;28.42;101205.50;12217075;19;20118;-76
2022/05/10 14:39:30;;;;;;;2.30;1.92;;;30.50;29.00;;;29.05;28.18;101216.75;12221223;19;20018;-77
2022/05/10 14:43:38;;;;;;;2.65;2.10;;;30.50;29.00;;;28.98;28.05;101212.34;12213015;19;20057;-76
2022/05/10 14:47:41;;;;;;;1.80;1.70;;;30.50;29.20;;;28.84;28.30;101189.84;12219093;19;20022;-77
2022/05/10 14:51:46;;;;;;;2.17;1.63;;;30.40;29.10;;;28.90;28.03;101199.84;12215632;19;20015;-77
2022/05/10 14:56:03;;;;;;;3.17;1.70;;;30.40;28.90;;;28.96;28.17;101204.44;12168218;19;20018;-77
2022/05/10 15:00:44;;;;;;;2.13;1.38;;;30.50;28.90;;;28.77;27.88;101179.06;12211859;19;20077;-77
2022/05/10 15:04:47;;;;;;;1.83;1.60;;;30.40;28.70;;;28.86;28.08;101201.25;12212066;19;20531;-77
2022/05/10 15:08:48;;;;;;;4.22;1.70;;;30.30;28.80;;;28.87;28.15;101189.50;12214835;19;20480;-77
2022/05/10 15:13:03;;;;;;;1.60;1.50;;;30.30;28.90;;;28.91;27.97;101188.06;12209909;19;20026;-77
2022/05/10 15:17:17;;;;;;;1.92;1.77;;;30.40;28.70;;;28.91;27.70;101166.56;12216626;19;20593;-77
2022/05/10 15:21:21;;;;;;;1.60;1.50;;;30.40;28.70;;;28.92;27.76;101170.91;12210837;19;20037;-77
2022/05/10 15:25:23;;;;;;;;;;;30.40;28.90;;;28.79;28.47;101127.81;12215635;19;20015;-77
2022/05/10 15:29:31;;;;;;;1.42;1.33;;;30.40;29.60;;;29.04;27.56;101150.56;12215627;19;19918;-77
2022/05/10 15:33:33;;;;;;;2.53;1.50;;;30.30;28.70;;;29.13;27.88;101161.16;12211685;19;20832;-77
2022/05/10 15:37:34;;;;;;;1.52;1.40;;;30.50;28.90;;;29.17;28.07;101146.31;12213644;19;20019;-77
2022/05/10 15:41:37;;;;;;;1.13;1.10;;;30.60;28.80;;;29.20;27.68;101141.34;12217925;19;20015;-77
2022/05/10 15:45:39;;;;;;;1.45;1.35;;;30.50;28.70;;;29.19;27.69;101138.84;12215124;19;20015;-76
2022/05/10 15:49:41;;;;;;;1.60;1.50;;;30.60;28.60;;;29.05;27.67;101117.25;12220170;19;20092;-76
2022/05/10 15:53:42;;;;;;;4.10;1.45;;;30.50;28.70;;;29.12;27.66;101128.06;12218225;19;20023;-76
2022/05/10 15:57:45;;;;;;;2.03;1.80;;;30.30;28.80;;;29.04;27.72;101118.28;12219388;19;20078;-76
2022/05/10 16:01:47;;;;;;;3.00;1.60;;;30.50;28.70;;;28.98;27.83;101110.97;12213895;19;20106;-77
2022/05/10 16:05:52;;;;;;;3.47;1.50;;;30.60;28.80;;;28.94;27.52;101109.69;12223709;19;20014;-76
2022/05/10 16:09:54;;;;;;;1.40;1.30;;;30.50;28.70;;;28.88;27.67;101110.47;12226847;19;20529;-76
2022/05/10 16:13:56;;;;;;;1.85;1.42;;;30.50;28.70;;;28.92;27.24;101106.38;12226362;19;20018;-78
2022/05/10 16:17:57;;;;;;;1.42;1.30;;;30.40;28.70;;;28.86;27.50;101091.84;12215257;19;20028;-77
2022/05/10 16:21:59;;;;;;;1.48;1.38;;;30.30;28.60;;;28.86;27.48;101096.41;12224694;19;20562;-77
2022/05/10 16:26:01;;;;;;;1.40;1.30;;;30.30;28.90;;;28.79;27.57;101088.31;12232296;19;20025;-78
2022/05/10 16:30:03;;;;;;;1.50;1.40;;;30.30;28.70;;;28.73;27.55;101093.59;12230118;19;20018;-76
2022/05/10 16:34:05;;;;;;;1.55;1.45;;;30.30;28.80;;;28.62;27.65;101089.59;12226166;19;20026;-76
2022/05/10 16:38:09;;;;;;;2.78;1.30;;;30.20;28.80;;;28.30;27.73;101051.50;12228763;19;20022;-77
2022/05/10 16:42:15;;;;;;;1.52;1.40;;;30.00;28.70;;;28.47;27.59;101078.94;12219148;19;20495;-77
2022/05/10 16:46:16;;;;;;;1.63;1.52;;;30.10;28.80;;;28.41;27.94;101080.53;12218359;19;20035;-77
2022/05/10 16:50:18;;;;;;;1.67;1.55;;;30.10;28.80;;;28.37;27.95;101073.03;12220437;19;20030;-76
2022/05/10 16:54:29;;;;;;;2.08;1.55;;;30.00;28.90;;;28.40;27.70;101081.53;12221158;19;20043;-77
2022/05/10 16:58:30;;;;;;;1.33;1.23;;;29.80;29.00;;;28.27;27.71;101061.78;12226266;19;20101;-77
2022/05/10 17:02:34;;;;;;;1.30;1.20;;;29.90;28.90;;;28.17;27.80;101048.69;12221142;19;20053;-77
2022/05/10 17:06:39;;;;;;;1.73;1.35;;;29.80;28.90;;;28.22;27.75;101065.91;12226353;19;20018;-77
2022/05/10 17:10:42;;;;;;;2.15;1.40;;;29.60;28.90;;;28.17;27.90;101054.88;12224685;19;20018;-77
2022/05/10 17:14:43;;;;;;;3.40;1.50;;;29.70;29.20;;;28.21;28.08;101052.63;12222377;19;20010;-77
2022/05/10 17:18:46;;;;;;;1.65;1.33;;;29.80;29.30;;;28.06;27.94;101033.06;12229462;19;20488;-77
2022/05/10 17:22:51;;;;;;;2.42;1.60;;;29.70;29.20;;;27.98;27.71;101018.78;12216546;19;20014;-77
2022/05/10 17:26:52;;;;;;;1.50;1.40;;;29.60;29.10;;;28.10;28.21;101047.78;12226829;19;20409;-77